Belmont, TX (78604)

12:20 AM CDT on April 28, 2015 (GMT -0500)
3 Miles West of Cost | | Change Station
CLOSE
Current Station
Personal Weather Station
Location: Cost, TX
Elevation: 361 ft
Nearby Weather Stations

Elev 361 ft 29.42 °N, 97.57 °W | Updated 6 minutes ago

Clear
Clear
68.5 °F
Feels Like 68.5 °F
N
5.0
Wind Variable Wind from NNE
Gusts 7.0 mph

Today
High -- | Low -- °F
--% Chance of Precip.
Yesterday
High -- | Low -- °F
Precip. -- in
6:51 AM 8:05 PM
Waxing Gibbous, 71% visible
Pressure 29.77 in
Visibility 10.0 miles
Clouds Clear
Dew Point 65 °F
Humidity 88%
Rainfall 0.00 in
Snow Depth Not available.
UV 0 out of 12
Pollen 6.30 out of 12
Air Quality Not available.
Flu Activity Local Activity
METAR KT20 280455Z AUTO 04005KT 10SM CLR 22/18 A2977 RMK AO2 T02210183

More Conditions Fewer Conditions

Pressure 29.77 in
Visibility 10.0 miles
Clouds Clear
Dew Point 65 °F
Humidity 88%
Rainfall 0.00 in
Snow Depth Not available.
UV 0 out of 12
Pollen 6.30 out of 12
Air Quality Not available.
Flu Activity Local Activity
METAR KT20 280455Z AUTO 04005KT 10SM CLR 22/18 A2977 RMK AO2 T02210183

More Conditions Fewer Conditions

10-Day Weather Forecast

Almanac

Astronomy

Apr. 28, 2015 Rise Set
Actual Time
Civil Twilight
Nautical Twilight
Astronomical Twilight
Moon
Length of Visible Light
Length of Day
Tomorrow will be .
, % of the Moon is Illuminated

Today's Extremes

State Highs State Lows

Community

WunderPhotos

Upload Photos

1,817,584 photos uploaded!

WunderBlogs® & News

Nearby

Air Quality

  Air Quality AQ Index Pollutant
Not available.

Snow Depth

Station Depth Elevation

Earthquake Activity

City Distance Mag. Time & Date
Minimum magnitude displayed is 2.5.

Coastal Water Temperatures

Place Temperature

Stations

Nearby Weather Stations

Station Location Temp. Windchill Dew Point Humidity Wind Precip. Elev Updated Type